Time;durP1;ratioP1;P1;durP2;ratioP2;P2;SDS_P1;SDS_P2;PMS_P1;PMS_P2;Temp;Humidity;BMP_temperature;BMP_pressure;BME280_temperature;BME280_humidity;BME280_pressure;Samples;Min_cycle;Max_cycle;Signal;HPM_P1;HPM_P2
2021/09/14 00:01:06;;;;;;;9.10;5.53;;;14.60;12.60;;;;;;4451868;28;656378;-67
2021/09/14 00:03:55;;;;;;;7.87;5.70;;;14.60;17.60;;;;;;4450826;28;658902;-67
2021/09/14 00:06:43;;;;;;;11.57;5.50;;;14.60;21.20;;;;;;4450567;28;657723;-67
2021/09/14 00:09:31;;;;;;;11.30;6.03;;;14.50;25.10;;;;;;4469381;28;658453;-67
2021/09/14 00:12:18;;;;;;;7.47;5.60;;;14.50;28.50;;;;;;4450186;28;658517;-67
2021/09/14 00:15:08;;;;;;;8.37;5.77;;;14.50;30.60;;;;;;4470568;28;657745;-67
2021/09/14 00:17:55;;;;;;;9.53;5.30;;;14.60;39.00;;;;;;4447499;28;657508;-67
2021/09/14 00:20:44;;;;;;;8.13;5.40;;;14.60;32.40;;;;;;4447055;28;657630;-67
2021/09/14 00:23:33;;;;;;;7.73;5.30;;;14.60;31.50;;;;;;4450956;28;657754;-68
2021/09/14 00:26:20;;;;;;;7.77;5.90;;;14.60;40.20;;;;;;4464378;28;657967;-67
2021/09/14 00:29:08;;;;;;;6.43;5.30;;;14.60;47.10;;;;;;4451312;28;657503;-68
2021/09/14 00:31:55;;;;;;;11.60;5.57;;;14.60;46.20;;;;;;4470203;28;657963;-67
2021/09/14 00:34:43;;;;;;;13.67;6.00;;;14.60;51.50;;;;;;4449420;28;659087;-67
2021/09/14 00:37:32;;;;;;;6.40;5.33;;;14.60;56.70;;;;;;4468797;28;658444;-67
2021/09/14 00:40:19;;;;;;;15.70;5.97;;;14.60;67.50;;;;;;4446732;28;658728;-67
2021/09/14 00:43:07;;;;;;;8.27;5.60;;;14.60;73.10;;;;;;4449336;28;659008;-69
2021/09/14 00:45:54;;;;;;;7.33;5.70;;;14.50;83.00;;;;;;4474005;28;658333;-67
2021/09/14 00:48:42;;;;;;;9.90;5.83;;;14.60;79.50;;;;;;4450386;28;658223;-68
2021/09/14 00:51:30;;;;;;;8.20;5.63;;;14.60;82.80;;;;;;4472010;28;658306;-67
2021/09/14 00:54:19;;;;;;;9.07;5.50;;;14.60;90.10;;;;;;4449588;28;657196;-69
2021/09/14 00:57:06;;;;;;;8.33;6.10;;;14.50;92.40;;;;;;4469398;28;657803;-67
2021/09/14 00:59:54;;;;;;;10.83;5.63;;;14.50;92.10;;;;;;4447021;28;658385;-67
2021/09/14 01:02:41;;;;;;;9.47;5.70;;;14.50;94.90;;;;;;4468329;28;659054;-67
2021/09/14 01:05:28;;;;;;;8.97;5.53;;;14.50;95.00;;;;;;4446733;28;659075;-67
2021/09/14 01:08:17;;;;;;;10.57;5.57;;;14.50;95.20;;;;;;4411318;28;658068;-67
2021/09/14 01:11:07;;;;;;;8.40;5.97;;;14.50;96.90;;;;;;4371166;28;659180;-67
2021/09/14 01:14:01;;;;;;;8.23;5.43;;;14.40;99.90;;;;;;4372845;28;659031;-67
2021/09/14 01:16:49;;;;;;;10.90;5.53;;;14.50;99.90;;;;;;4350913;28;657747;-68
2021/09/14 01:19:36;;;;;;;8.23;5.63;;;14.50;99.90;;;;;;4396151;28;659068;-67
2021/09/14 01:22:28;;;;;;;8.87;5.70;;;14.40;95.10;;;;;;4373856;28;659268;-67
2021/09/14 01:25:17;;;;;;;8.33;5.30;;;14.40;99.90;;;;;;4373458;28;658250;-68
2021/09/14 01:28:05;;;;;;;7.87;5.37;;;14.40;99.90;;;;;;4373417;28;658562;-67
2021/09/14 01:30:52;;;;;;;10.60;5.60;;;14.40;99.90;;;;;;4377390;28;657410;-68
2021/09/14 01:33:40;;;;;;;9.93;6.00;;;14.40;99.90;;;;;;4395075;28;659584;-68
2021/09/14 01:36:27;;;;;;;9.27;5.70;;;14.30;99.90;;;;;;4377590;28;657933;-68
2021/09/14 01:39:16;;;;;;;9.77;6.20;;;14.30;99.90;;;;;;4396548;28;658763;-67
2021/09/14 01:42:04;;;;;;;11.90;6.67;;;14.30;99.90;;;;;;4373503;28;659445;-67
2021/09/14 01:44:52;;;;;;;7.45;5.38;;;14.20;99.90;;;;;;4379156;28;658907;-68
2021/09/14 01:47:40;;;;;;;10.07;6.20;;;14.20;99.90;;;;;;4399960;28;658574;-67
2021/09/14 01:50:27;;;;;;;11.03;6.47;;;14.20;99.90;;;;;;4375984;28;658505;-68
2021/09/14 01:53:15;;;;;;;9.90;6.43;;;14.10;99.90;;;;;;4394795;28;659218;-67
2021/09/14 01:56:05;;;;;;;9.57;6.33;;;14.00;99.90;;;;;;4377493;28;658068;-68
2021/09/14 01:58:53;;;;;;;16.20;6.60;;;14.00;99.90;;;;;;4376904;28;658208;-67
2021/09/14 02:01:43;;;;;;;9.45;6.57;;;13.90;99.90;;;;;;4391826;28;658457;-67
2021/09/14 02:04:41;;;;;;;10.63;6.03;;;13.80;99.90;;;;;;4373295;28;658041;-67
2021/09/14 02:38:36;;;;;;;10.77;6.90;;;12.90;99.90;;;;;;4453226;28;651495;-68
2021/09/14 02:41:52;;;;;;;11.53;6.20;;;12.90;99.90;;;;;;4423630;28;654025;-68
2021/09/14 02:45:01;;;;;;;11.53;7.10;;;12.80;99.90;;;;;;4446475;28;653698;-67
2021/09/14 03:00:09;;;;;;;12.27;7.38;;;12.50;99.90;;;;;;4351710;28;654313;-67
2021/09/14 03:02:57;;;;;;;9.15;7.00;;;12.50;99.90;;;;;;4380204;28;653386;-67
2021/09/14 03:05:44;;;;;;;12.43;6.93;;;12.50;99.90;;;;;;4397950;28;654215;-67
2021/09/14 03:08:33;;;;;;;9.63;6.50;;;12.40;99.90;;;;;;4377855;28;653862;-68
2021/09/14 03:11:20;;;;;;;10.23;7.00;;;12.30;99.90;;;;;;4397415;28;652742;-67
2021/09/14 03:14:09;;;;;;;12.00;6.97;;;12.30;99.90;;;;;;4378053;28;653631;-68
2021/09/14 03:16:57;;;;;;;11.80;7.07;;;12.20;99.90;;;;;;4378492;28;653140;-68
2021/09/14 03:19:44;;;;;;;11.00;6.83;;;12.20;99.90;;;;;;4400026;28;653086;-67
2021/09/14 03:22:32;;;;;;;11.67;6.57;;;12.00;99.90;;;;;;4366926;28;653083;-67
2021/09/14 03:25:19;;;;;;;11.70;7.23;;;12.00;99.90;;;;;;4385276;28;654139;-67
2021/09/14 03:28:07;;;;;;;11.27;6.70;;;12.00;99.90;;;;;;4366557;28;653250;-68
2021/09/14 03:30:56;;;;;;;15.17;6.93;;;11.90;99.90;;;;;;4387814;28;654480;-67
2021/09/14 03:33:44;;;;;;;9.00;6.23;;;11.80;99.90;;;;;;4362598;28;655198;-67
2021/09/14 03:36:31;;;;;;;11.00;6.43;;;11.80;99.90;;;;;;4385831;28;652242;-67
2021/09/14 03:39:19;;;;;;;10.10;6.90;;;11.80;99.90;;;;;;4362105;28;655107;-67
2021/09/14 03:42:07;;;;;;;11.77;6.60;;;11.70;99.90;;;;;;4438265;28;653326;-67
2021/09/14 03:44:54;;;;;;;10.20;7.17;;;11.70;99.90;;;;;;4416183;28;654943;-68
2021/09/14 03:47:43;;;;;;;9.10;6.67;;;11.70;99.90;;;;;;4422404;28;654032;-68
2021/09/14 03:50:31;;;;;;;11.90;6.10;;;11.70;99.90;;;;;;4439988;28;652521;-67
2021/09/14 03:53:18;;;;;;;10.50;7.10;;;11.60;99.90;;;;;;4420261;28;654426;-67
2021/09/14 03:56:08;;;;;;;12.07;7.00;;;11.60;99.90;;;;;;4438382;28;654181;-67
2021/09/14 03:58:56;;;;;;;10.67;6.27;;;11.60;99.90;;;;;;4415583;28;653986;-67
2021/09/14 04:01:50;;;;;;;11.27;6.17;;;11.50;99.90;;;;;;4419724;28;654055;-67
2021/09/14 04:04:48;;;;;;;9.17;5.90;;;11.40;99.90;;;;;;4397072;28;653078;-67
2021/09/14 04:07:52;;;;;;;9.17;6.40;;;11.40;99.90;;;;;;4417017;28;652918;-67
2021/09/14 04:10:59;;;;;;;9.20;6.33;;;11.40;99.90;;;;;;4393985;28;653818;-67
2021/09/14 04:13:47;;;;;;;10.53;7.20;;;11.40;99.90;;;;;;4407697;28;652681;-67
2021/09/14 04:16:35;;;;;;;11.23;6.47;;;11.30;99.90;;;;;;4439117;28;654299;-67
2021/09/14 04:20:05;;;;;;;10.10;6.37;;;11.30;99.90;;;;;;4419305;28;653400;-68
2021/09/14 04:22:54;;;;;;;14.53;7.30;;;11.30;99.90;;;;;;4393162;28;654198;-67
2021/09/14 04:25:42;;;;;;;13.17;6.67;;;11.20;99.90;;;;;;4427218;28;653622;-68
2021/09/14 04:28:31;;;;;;;11.27;6.83;;;11.20;99.90;;;;;;4434956;28;654120;-67
2021/09/14 04:31:18;;;;;;;11.83;6.83;;;11.20;99.90;;;;;;4415356;28;653696;-67
2021/09/14 04:34:06;;;;;;;10.23;6.87;;;11.20;99.90;;;;;;4437156;28;653871;-67
2021/09/14 04:36:53;;;;;;;11.93;7.73;;;11.10;99.90;;;;;;4415347;28;654581;-67
2021/09/14 04:39:43;;;;;;;12.27;7.83;;;11.20;99.90;;;;;;4437456;28;653934;-67
2021/09/14 04:42:30;;;;;;;21.27;9.00;;;11.20;99.90;;;;;;4414215;28;653314;-67
2021/09/14 04:45:18;;;;;;;16.40;9.40;;;11.30;99.90;;;;;;4418993;28;653919;-67
2021/09/14 04:48:05;;;;;;;16.40;9.07;;;11.30;99.90;;;;;;4437958;28;654112;-67
2021/09/14 04:50:53;;;;;;;16.50;8.57;;;11.40;99.90;;;;;;4418262;28;653398;-67
2021/09/14 04:53:41;;;;;;;17.53;8.80;;;11.40;99.90;;;;;;4437472;28;653505;-67
2021/09/14 04:56:30;;;;;;;16.17;8.60;;;11.40;99.90;;;;;;4414242;28;654572;-67
2021/09/14 04:59:18;;;;;;;15.77;9.10;;;11.40;99.90;;;;;;4417615;28;654926;-67
2021/09/14 05:02:05;;;;;;;16.17;9.43;;;11.40;99.90;;;;;;4436373;28;655068;-67
2021/09/14 05:04:53;;;;;;;15.37;8.60;;;11.40;99.90;;;;;;4413892;28;654549;-67
2021/09/14 05:07:41;;;;;;;16.23;9.17;;;11.50;99.90;;;;;;4435842;28;654444;-67
2021/09/14 05:10:29;;;;;;;16.50;9.13;;;11.60;99.90;;;;;;4409884;28;654552;-67
2021/09/14 05:13:18;;;;;;;15.73;9.33;;;11.70;99.90;;;;;;4435164;28;654957;-67
2021/09/14 05:16:06;;;;;;;18.73;9.18;;;11.70;99.90;;;;;;4435943;28;654904;-66
2021/09/14 05:18:53;;;;;;;15.23;8.70;;;11.70;99.90;;;;;;4413418;28;655817;-67
2021/09/14 05:21:46;;;;;;;14.03;8.93;;;11.80;99.90;;;;;;4430677;28;655352;-66
2021/09/14 05:24:34;;;;;;;14.57;9.17;;;11.80;99.90;;;;;;4394434;28;654533;-67
2021/09/14 05:27:22;;;;;;;17.33;9.87;;;11.90;99.90;;;;;;4428392;28;654828;-67
2021/09/14 05:30:12;;;;;;;15.33;9.00;;;12.00;99.90;;;;;;4440039;28;655880;-67
2021/09/14 05:32:59;;;;;;;16.17;8.70;;;12.10;99.90;;;;;;4413134;28;655455;-66
2021/09/14 05:35:55;;;;;;;15.45;9.15;;;12.20;99.90;;;;;;4417019;28;654581;-67
2021/09/14 05:38:48;;;;;;;16.03;8.43;;;12.40;99.90;;;;;;4391726;28;655368;-67
2021/09/14 05:41:39;;;;;;;12.63;8.38;;;12.60;99.90;;;;;;4410054;28;654852;-67
2021/09/14 05:44:28;;;;;;;13.77;8.47;;;12.70;99.90;;;;;;4406305;28;655064;-67
2021/09/14 05:47:25;;;;;;;14.90;8.30;;;12.80;99.90;;;;;;4435460;28;655185;-67
2021/09/14 05:50:19;;;;;;;14.20;8.37;;;13.00;99.90;;;;;;4414918;28;654595;-67
2021/09/14 05:53:14;;;;;;;14.80;8.60;;;13.20;99.90;;;;;;4412793;28;654792;-67
2021/09/14 05:56:07;;;;;;;14.60;8.70;;;13.30;99.90;;;;;;4409336;28;655031;-67
2021/09/14 05:58:58;;;;;;;20.37;9.83;;;13.40;99.90;;;;;;4413047;28;656109;-67
2021/09/14 06:01:49;;;;;;;12.05;8.40;;;13.60;99.90;;;;;;4407548;28;654538;-67
2021/09/14 06:04:38;;;;;;;19.73;9.30;;;13.80;99.90;;;;;;4399461;28;654607;-68
2021/09/14 06:07:26;;;;;;;18.00;9.40;;;14.00;99.90;;;;;;4435391;28;654988;-67
2021/09/14 06:10:14;;;;;;;15.37;9.20;;;14.20;99.90;;;;;;4412983;28;656085;-67
2021/09/14 06:13:02;;;;;;;16.67;8.77;;;14.50;99.90;;;;;;4432538;28;655303;-67
2021/09/14 06:15:50;;;;;;;13.30;7.97;;;14.70;99.90;;;;;;4425203;28;654428;-67
2021/09/14 06:18:37;;;;;;;16.80;7.77;;;14.90;99.90;;;;;;4416935;28;654959;-67
2021/09/14 06:21:26;;;;;;;13.33;8.40;;;15.00;99.90;;;;;;4435134;28;655636;-67
2021/09/14 06:24:14;;;;;;;15.60;8.60;;;15.20;99.90;;;;;;4416486;28;655229;-67
2021/09/14 06:27:02;;;;;;;13.83;7.93;;;15.40;99.90;;;;;;4428693;28;654282;-67
2021/09/14 06:29:50;;;;;;;12.35;7.47;;;15.60;99.90;;;;;;4436442;28;655111;-67
2021/09/14 06:32:37;;;;;;;13.20;8.67;;;15.90;99.90;;;;;;4416300;28;654524;-67
2021/09/14 06:35:25;;;;;;;13.97;8.60;;;16.10;99.90;;;;;;4434981;28;655845;-67
2021/09/14 06:38:14;;;;;;;18.13;9.97;;;16.30;99.90;;;;;;4416660;28;654668;-67
2021/09/14 06:41:02;;;;;;;22.57;11.37;;;16.50;99.90;;;;;;4430609;28;655173;-67
2021/09/14 06:43:50;;;;;;;19.60;10.80;;;16.80;99.90;;;;;;4434361;28;655984;-67
2021/09/14 06:46:37;;;;;;;16.67;10.33;;;17.00;99.90;;;;;;4415053;28;655700;-68
2021/09/14 06:49:26;;;;;;;16.00;10.53;;;17.30;99.90;;;;;;4434064;28;657104;-67
2021/09/14 06:52:14;;;;;;;15.70;9.80;;;17.50;59.80;;;;;;4415087;28;656978;-68
2021/09/14 06:55:03;;;;;;;17.57;9.70;;;17.80;36.20;;;;;;4435608;28;654577;-67
2021/09/14 06:57:50;;;;;;;17.90;10.83;;;17.90;1.00;;;;;;4414171;28;656586;-67
2021/09/14 07:00:38;;;;;;;17.77;10.20;;;18.00;1.00;;;;;;4418322;28;655528;-68
2021/09/14 07:03:26;;;;;;;15.50;10.63;;;18.10;1.00;;;;;;4437370;28;656019;-67
2021/09/14 07:06:14;;;;;;;17.17;9.80;;;18.20;1.00;;;;;;4414719;28;657307;-67
2021/09/14 07:09:02;;;;;;;15.20;10.10;;;18.30;1.00;;;;;;4427510;28;654819;-67
2021/09/14 07:11:59;;;;;;;19.93;10.67;;;18.20;1.00;;;;;;4437360;28;656043;-67
2021/09/14 07:14:52;;;;;;;17.47;9.87;;;18.40;1.00;;;;;;4405106;28;655736;-68
2021/09/14 07:17:46;;;;;;;15.80;10.60;;;18.50;1.00;;;;;;4415706;28;654825;-67
2021/09/14 07:20:39;;;;;;;19.80;11.30;;;18.60;1.00;;;;;;4418398;28;656041;-67
2021/09/14 07:23:35;;;;;;;21.43;11.90;;;18.60;1.00;;;;;;4410153;28;655798;-67
2021/09/14 07:26:29;;;;;;;19.47;11.40;;;18.70;1.00;;;;;;4395462;28;655460;-68
2021/09/14 07:29:28;;;;;;;22.00;10.97;;;18.80;1.00;;;;;;4401400;28;655661;-68
2021/09/14 07:32:23;;;;;;;19.80;10.90;;;19.10;1.00;;;;;;4414039;28;656327;-67
2021/09/14 07:35:12;;;;;;;19.17;10.10;;;19.20;1.00;;;;;;4414119;28;656211;-67
2021/09/14 07:38:03;;;;;;;17.13;9.93;;;19.40;1.00;;;;;;4413981;28;656678;-67
2021/09/14 07:40:51;;;;;;;15.83;9.83;;;19.60;1.00;;;;;;4415141;28;654713;-67
2021/09/14 07:43:39;;;;;;;18.27;10.27;;;19.80;1.00;;;;;;4414818;28;655943;-67
2021/09/14 07:46:28;;;;;;;16.13;9.70;;;20.00;1.00;;;;;;4436441;28;655945;-67
2021/09/14 07:49:15;;;;;;;16.50;9.52;;;20.10;99.90;;;;;;4411893;28;654777;-67
2021/09/14 07:52:03;;;;;;;15.63;9.47;;;20.20;99.90;;;;;;4417774;28;655925;-68
2021/09/14 07:54:51;;;;;;;18.83;8.73;;;20.40;99.90;;;;;;4435976;28;656008;-67
2021/09/14 07:57:38;;;;;;;14.13;8.60;;;20.80;99.90;;;;;;4413790;28;656313;-67
2021/09/14 08:00:26;;;;;;;14.33;8.73;;;20.80;99.90;;;;;;4436300;28;656087;-67
2021/09/14 08:03:15;;;;;;;13.83;8.23;;;21.10;99.90;;;;;;4417744;28;656722;-67
2021/09/14 08:06:03;;;;;;;16.17;8.73;;;21.40;99.90;;;;;;4417450;28;655752;-68
2021/09/14 08:08:50;;;;;;;13.57;8.10;;;21.70;99.90;;;;;;4436043;28;655685;-67
2021/09/14 08:11:38;;;;;;;21.17;7.80;;;21.80;99.90;;;;;;4416988;28;655553;-68
2021/09/14 08:14:26;;;;;;;12.50;7.43;;;21.70;99.90;;;;;;4436098;28;655952;-67
2021/09/14 08:17:15;;;;;;;12.13;7.70;;;21.60;99.90;;;;;;4413515;28;655339;-68
2021/09/14 08:20:05;;;;;;;11.77;6.70;;;21.20;99.90;;;;;;4413161;28;655972;-67
2021/09/14 08:22:52;;;;;;;9.77;7.10;;;21.00;99.90;;;;;;4417433;28;655209;-68
2021/09/14 08:25:41;;;;;;;12.47;6.43;;;20.80;96.60;;;;;;4437146;28;655778;-67
2021/09/14 08:28:28;;;;;;;10.90;6.67;;;20.70;99.90;;;;;;4413166;28;656379;-67
2021/09/14 08:31:16;;;;;;;14.47;7.20;;;20.60;99.90;;;;;;4435878;28;655693;-67
2021/09/14 08:34:04;;;;;;;11.53;6.00;;;20.50;99.90;;;;;;4413182;28;657234;-68
2021/09/14 08:36:52;;;;;;;11.17;6.53;;;20.50;99.90;;;;;;4435877;28;655826;-68
2021/09/14 08:39:40;;;;;;;14.73;6.83;;;20.50;99.90;;;;;;4412998;28;656743;-67
2021/09/14 08:42:28;;;;;;;12.17;7.60;;;20.60;99.90;;;;;;4409696;28;655645;-68
2021/09/14 08:45:15;;;;;;;13.30;7.67;;;20.80;99.90;;;;;;4435655;28;655437;-68
2021/09/14 08:48:03;;;;;;;13.80;8.23;;;21.00;99.90;;;;;;4416861;28;655699;-67
2021/09/14 08:50:51;;;;;;;14.03;8.50;;;21.20;99.90;;;;;;4435537;28;655306;-68
2021/09/14 08:53:40;;;;;;;16.23;8.63;;;21.70;99.90;;;;;;4416681;28;657072;-67
2021/09/14 08:56:27;;;;;;;17.63;8.93;;;22.30;99.90;;;;;;4416742;28;655437;-68
2021/09/14 08:59:26;;;;;;;16.43;8.27;;;22.60;1.80;;;;;;4435313;28;657204;-68
2021/09/14 09:02:16;;;;;;;14.07;8.00;;;22.80;1.00;;;;;;4391110;28;655908;-68
2021/09/14 09:05:04;;;;;;;14.00;7.70;;;23.10;99.90;;;;;;4417721;28;654972;-68
2021/09/14 09:07:52;;;;;;;15.13;7.37;;;23.50;99.90;;;;;;4416533;28;655839;-69
2021/09/14 09:10:41;;;;;;;13.63;7.80;;;23.40;1.00;;;;;;4420645;28;656915;-68
2021/09/14 09:13:30;;;;;;;14.20;7.37;;;23.40;20.30;;;;;;4395244;28;655227;-68
2021/09/14 09:16:19;;;;;;;17.37;8.93;;;23.30;1.00;;;;;;4397803;28;655438;-68
2021/09/14 09:19:07;;;;;;;14.50;8.90;;;23.30;1.00;;;;;;4413074;28;654521;-69
2021/09/14 09:21:58;;;;;;;16.03;8.70;;;23.30;99.90;;;;;;4417749;28;656092;-68
2021/09/14 09:24:46;;;;;;;15.97;8.60;;;23.40;1.00;;;;;;4393689;28;655896;-68
2021/09/14 09:27:35;;;;;;;13.20;7.90;;;23.70;1.00;;;;;;4398996;28;655918;-68
2021/09/14 09:30:33;;;;;;;12.25;8.23;;;24.30;1.00;;;;;;4399096;28;654732;-68
2021/09/14 09:33:27;;;;;;;16.23;8.70;;;24.40;99.90;;;;;;4387132;28;654407;-68
2021/09/14 09:36:16;;;;;;;15.80;7.80;;;24.30;1.00;;;;;;4393584;28;656230;-67
2021/09/14 09:39:06;;;;;;;12.65;7.97;;;24.20;99.90;;;;;;4394792;28;654555;-68
2021/09/14 09:41:55;;;;;;;12.73;8.02;;;24.50;99.90;;;;;;4391837;28;655618;-68
2021/09/14 09:44:57;;;;;;;15.32;7.63;;;24.70;99.90;;;;;;4395041;28;655651;-68
2021/09/14 09:47:47;;;;;;;9.82;6.95;;;24.90;1.00;;;;;;4388436;28;656463;-68
2021/09/14 09:50:37;;;;;;;10.07;7.88;;;24.90;99.90;;;;;;4396049;28;654144;-68
2021/09/14 09:53:26;;;;;;;9.65;7.22;;;25.00;99.90;;;;;;4393258;28;656408;-67
2021/09/14 09:56:18;;;;;;;11.00;7.68;;;24.90;99.90;;;;;;4398828;28;654086;-68
2021/09/14 09:59:13;;;;;;;15.80;7.15;;;25.00;99.90;;;;;;4393391;28;655658;-67
2021/09/14 10:02:06;;;;;;;12.88;7.05;;;25.40;99.90;;;;;;4393241;28;656269;-68
2021/09/14 10:05:02;;;;;;;13.93;6.53;;;25.70;99.90;;;;;;4368742;28;656030;-68
2021/09/14 10:07:55;;;;;;;16.95;6.38;;;25.40;99.90;;;;;;4391194;28;656039;-68
2021/09/14 10:10:43;;;;;;;14.82;7.72;;;25.20;99.90;;;;;;4366090;28;656495;-68
2021/09/14 10:13:40;;;;;;;11.32;7.25;;;25.10;99.90;;;;;;4416512;28;655544;-67
2021/09/14 10:16:45;;;;;;;11.80;7.35;;;24.60;99.90;;;;;;4385483;28;655640;-67
2021/09/14 10:19:44;;;;;;;11.27;7.45;;;24.30;99.90;;;;;;4375228;28;655491;-67
2021/09/14 10:22:37;;;;;;;12.07;7.40;;;24.30;99.90;;;;;;4375416;28;655750;-68
2021/09/14 10:25:30;;;;;;;12.27;7.53;;;24.10;99.90;;;;;;4394341;28;655925;-67
2021/09/14 10:28:23;;;;;;;14.70;7.55;;;23.70;99.90;;;;;;4371396;28;656652;-67
2021/09/14 10:31:25;;;;;;;8.45;6.20;;;23.60;99.90;;;;;;4395825;28;656830;-67
2021/09/14 10:34:17;;;;;;;9.35;7.30;;;23.80;1.00;;;;;;4377159;28;655625;-68
2021/09/14 10:37:07;;;;;;;11.25;6.75;;;23.50;99.90;;;;;;4398664;28;654408;-67
2021/09/14 10:39:55;;;;;;;11.38;7.20;;;23.30;1.00;;;;;;4397215;28;656905;-67
2021/09/14 10:42:45;;;;;;;12.02;7.18;;;23.00;99.90;;;;;;4401705;28;654516;-67
2021/09/14 10:45:43;;;;;;;7.57;6.27;;;22.80;1.00;;;;;;4401258;28;655673;-68
2021/09/14 10:48:33;;;;;;;12.85;6.63;;;22.60;1.00;;;;;;4402911;28;653998;-67
2021/09/14 10:51:22;;;;;;;8.90;7.07;;;22.50;94.50;;;;;;4398525;28;654599;-67
2021/09/14 10:54:24;;;;;;;13.30;6.93;;;22.40;87.60;;;;;;4397165;28;655003;-67
2021/09/14 10:57:21;;;;;;;12.63;7.50;;;22.40;99.90;;;;;;4378433;28;655370;-68
2021/09/14 11:00:10;;;;;;;10.33;7.23;;;22.70;1.00;;;;;;4374446;28;655719;-68
2021/09/14 11:03:06;;;;;;;14.85;7.47;;;22.90;1.00;;;;;;4399465;28;655132;-67
2021/09/14 11:05:58;;;;;;;13.63;7.32;;;23.10;1.00;;;;;;4375411;28;654691;-68
2021/09/14 11:08:59;;;;;;;12.70;7.25;;;23.60;32.70;;;;;;4397643;28;655060;-67
2021/09/14 11:11:56;;;;;;;11.73;7.18;;;24.30;1.00;;;;;;4374776;28;655317;-68
2021/09/14 11:14:46;;;;;;;12.50;7.25;;;25.10;99.90;;;;;;4371544;28;654691;-68
2021/09/14 11:17:38;;;;;;;9.63;7.28;;;25.70;95.80;;;;;;4394200;28;656142;-68
2021/09/14 11:20:29;;;;;;;13.05;6.60;;;26.20;1.00;;;;;;4396164;28;654626;-68
2021/09/14 11:23:25;;;;;;;11.73;6.97;;;26.50;1.00;;;;;;4395825;28;654890;-68
2021/09/14 11:26:19;;;;;;;9.32;6.38;;;27.10;99.90;;;;;;4377634;28;655187;-68
2021/09/14 11:29:18;;;;;;;10.02;7.32;;;27.50;99.90;;;;;;4381488;28;655449;-68
2021/09/14 11:32:19;;;;;;;12.63;5.38;;;27.40;58.30;;;;;;4394762;28;655698;-68
2021/09/14 11:35:16;;;;;;;10.60;5.22;;;26.70;73.50;;;;;;4388224;28;655142;-69
2021/09/14 11:38:11;;;;;;;10.07;5.43;;;26.20;99.90;;;;;;4372522;28;656612;-67
2021/09/14 11:41:03;;;;;;;11.45;5.63;;;26.00;99.90;;;;;;4372446;28;655790;-68
2021/09/14 11:43:51;;;;;;;10.88;5.75;;;26.10;99.90;;;;;;4394913;28;655546;-68
2021/09/14 11:46:56;;;;;;;12.63;5.45;;;26.70;99.90;;;;;;4392103;28;655413;-68
2021/09/14 11:50:01;;;;;;;9.85;5.82;;;26.80;99.90;;;;;;4373635;28;656302;-67
2021/09/14 11:53:06;;;;;;;8.77;5.40;;;26.80;99.90;;;;;;4372972;28;655209;-68
2021/09/14 11:55:59;;;;;;;10.15;6.00;;;26.80;77.60;;;;;;4369128;28;655893;-68
2021/09/14 11:58:49;;;;;;;8.98;5.80;;;26.70;71.30;;;;;;4376640;28;656028;-68
2021/09/14 12:01:41;;;;;;;12.50;5.55;;;26.90;99.90;;;;;;4408918;28;654696;-68
2021/09/14 12:04:40;;;;;;;13.63;6.20;;;26.90;45.20;;;;;;4394556;28;656503;-67
2021/09/14 12:07:32;;;;;;;10.52;5.75;;;27.20;1.00;;;;;;4376069;28;656438;-68
2021/09/14 12:10:25;;;;;;;8.32;5.85;;;27.30;1.00;;;;;;4396976;28;655717;-67
2021/09/14 12:13:20;;;;;;;12.60;6.38;;;26.90;1.00;;;;;;4373650;28;654610;-68
2021/09/14 12:16:12;;;;;;;10.65;6.20;;;26.70;1.00;;;;;;4371619;28;655472;-67
2021/09/14 12:19:01;;;;;;;12.15;6.22;;;26.40;1.00;;;;;;4394424;28;655239;-68
2021/09/14 12:21:51;;;;;;;9.30;5.88;;;25.80;1.00;;;;;;4398601;28;654725;-68
2021/09/14 12:24:39;;;;;;;14.82;6.35;;;25.40;1.00;;;;;;4395599;28;654965;-68
2021/09/14 12:27:29;;;;;;;10.38;6.70;;;24.90;1.00;;;;;;4401250;28;654715;-69
2021/09/14 12:30:17;;;;;;;10.80;6.25;;;24.80;1.00;;;;;;4409816;28;654253;-68
2021/09/14 12:33:05;;;;;;;13.20;6.28;;;24.60;1.00;;;;;;4423155;28;654893;-68
2021/09/14 12:35:53;;;;;;;14.93;6.00;;;24.60;1.00;;;;;;4399306;28;654550;-68
2021/09/14 12:38:51;;;;;;;10.77;6.65;;;24.50;30.00;;;;;;4420047;28;655629;-67
2021/09/14 12:41:40;;;;;;;14.70;7.07;;;24.30;33.70;;;;;;4372800;28;655693;-67
2021/09/14 12:44:31;;;;;;;11.48;7.20;;;24.50;94.70;;;;;;4383921;28;655164;-68
2021/09/14 12:47:21;;;;;;;10.50;6.85;;;24.40;96.00;;;;;;4399727;28;656961;-67
2021/09/14 12:50:17;;;;;;;12.60;7.32;;;24.50;96.40;;;;;;4399544;28;656604;-67
2021/09/14 12:53:09;;;;;;;11.77;6.90;;;24.70;99.90;;;;;;4394755;28;655940;-68
2021/09/14 12:56:03;;;;;;;15.98;8.75;;;24.80;99.90;;;;;;4394600;28;655899;-68
2021/09/14 12:58:59;;;;;;;13.70;7.60;;;25.30;2.10;;;;;;4387978;28;656302;-67
2021/09/14 13:01:52;;;;;;;14.85;7.97;;;25.60;1.00;;;;;;4393411;28;654588;-68
2021/09/14 13:04:45;;;;;;;10.85;6.82;;;26.20;1.00;;;;;;4393546;28;655483;-67
2021/09/14 13:07:37;;;;;;;13.00;7.28;;;27.00;1.00;;;;;;4371157;28;654594;-68
2021/09/14 13:10:25;;;;;;;10.43;6.22;;;27.90;1.00;;;;;;4407247;28;655536;-68
2021/09/14 13:16:32;;;;;;;10.25;6.30;;;29.40;1.00;;;;;;4390741;28;654912;-68
2021/09/14 13:19:22;;;;;;;10.98;6.93;;;30.10;1.00;;;;;;4413608;28;655228;-68
2021/09/14 13:22:11;;;;;;;10.77;6.10;;;30.30;99.90;;;;;;4413424;28;655575;-68
2021/09/14 13:25:06;;;;;;;10.77;6.28;;;30.10;99.90;;;;;;4416260;28;656077;-67
2021/09/14 13:27:58;;;;;;;11.30;6.40;;;29.80;99.90;;;;;;4389196;28;655806;-68
2021/09/14 13:30:51;;;;;;;12.52;6.43;;;30.50;99.90;;;;;;4412208;28;656659;-67
2021/09/14 13:33:47;;;;;;;14.45;6.65;;;30.80;99.90;;;;;;4389267;28;656749;-68
2021/09/14 13:36:42;;;;;;;15.60;5.97;;;30.50;99.90;;;;;;4411861;28;655747;-67
2021/09/14 13:39:32;;;;;;;12.23;7.15;;;30.50;99.90;;;;;;4412072;28;655755;-68
2021/09/14 13:42:29;;;;;;;10.05;6.57;;;30.50;99.90;;;;;;4411766;28;655989;-67
2021/09/14 13:48:30;;;;;;;12.10;6.95;;;30.20;99.90;;;;;;4393811;28;656090;-69
2021/09/14 13:51:19;;;;;;;16.17;7.20;;;29.80;99.90;;;;;;4389202;28;656439;-68
2021/09/14 13:54:07;;;;;;;11.05;6.25;;;29.80;99.90;;;;;;4427867;28;655428;-68
2021/09/14 13:56:56;;;;;;;14.07;6.63;;;29.50;99.90;;;;;;4434908;28;656054;-67
2021/09/14 13:59:45;;;;;;;15.23;6.50;;;29.40;98.80;;;;;;4410386;28;657126;-68
2021/09/14 14:02:39;;;;;;;7.55;5.93;;;29.60;99.90;;;;;;4415783;28;656516;-68
2021/09/14 14:05:34;;;;;;;11.23;7.05;;;29.80;99.90;;;;;;4401829;28;654146;-68
2021/09/14 14:08:29;;;;;;;18.15;7.45;;;29.70;99.90;;;;;;4411641;28;656107;-67
2021/09/14 14:11:22;;;;;;;11.63;6.88;;;29.60;99.90;;;;;;4407948;28;655624;-68
2021/09/14 14:14:16;;;;;;;11.80;5.90;;;29.40;99.90;;;;;;4411827;28;656769;-67
2021/09/14 14:17:05;;;;;;;9.95;6.07;;;29.80;99.90;;;;;;4390993;28;656041;-68
2021/09/14 14:19:55;;;;;;;11.65;6.80;;;30.30;99.90;;;;;;4414407;28;654718;-68
2021/09/14 14:22:46;;;;;;;10.20;6.35;;;30.30;99.90;;;;;;4415767;28;655828;-68
2021/09/14 14:25:41;;;;;;;10.57;6.40;;;30.10;99.90;;;;;;4411358;28;655296;-68
2021/09/14 14:28:33;;;;;;;13.65;6.68;;;29.80;99.90;;;;;;4388650;28;655582;-68
2021/09/14 14:31:28;;;;;;;9.68;6.25;;;30.00;99.90;;;;;;4411072;28;655225;-68
2021/09/14 14:34:22;;;;;;;13.35;7.45;;;30.10;99.90;;;;;;4412932;28;655016;-67
2021/09/14 14:37:10;;;;;;;11.80;7.03;;;29.80;99.90;;;;;;4388524;28;656960;-67
2021/09/14 14:39:59;;;;;;;9.27;6.53;;;29.30;99.90;;;;;;4414310;28;655972;-68
2021/09/14 14:42:48;;;;;;;8.27;6.57;;;28.40;99.90;;;;;;4416944;28;654284;-69
2021/09/14 14:45:37;;;;;;;10.70;6.80;;;28.40;99.90;;;;;;4435274;28;656077;-67
2021/09/14 14:48:25;;;;;;;12.48;6.65;;;28.50;99.90;;;;;;4410183;28;656576;-67
2021/09/14 14:51:13;;;;;;;12.80;6.90;;;29.00;99.90;;;;;;4415545;28;655871;-68
2021/09/14 14:54:00;;;;;;;9.15;6.25;;;29.70;99.90;;;;;;4434103;28;655968;-68
2021/09/14 14:56:50;;;;;;;8.70;6.87;;;30.40;99.90;;;;;;4416930;28;654670;-68
2021/09/14 14:59:37;;;;;;;9.88;6.40;;;31.00;99.90;;;;;;4416337;28;654624;-68
2021/09/14 15:02:25;;;;;;;11.77;6.35;;;31.80;99.90;;;;;;4438495;28;655125;-67
2021/09/14 15:05:16;;;;;;;12.13;6.80;;;32.50;99.90;;;;;;4415682;28;655707;-67
2021/09/14 15:08:04;;;;;;;15.93;6.80;;;32.80;99.90;;;;;;4415450;28;657091;-68
2021/09/14 15:10:52;;;;;;;18.70;6.45;;;32.80;97.50;;;;;;4414680;28;655878;-68
2021/09/14 15:13:42;;;;;;;12.63;6.53;;;33.70;61.10;;;;;;4433960;28;655939;-68
2021/09/14 15:16:29;;;;;;;11.98;6.10;;;34.80;1.00;;;;;;4409560;28;657080;-68
2021/09/14 15:19:17;;;;;;;9.65;6.20;;;35.40;1.00;;;;;;4419956;28;654647;-68